メインページ
METAR-TAF:

METAR-TAF

空港 :

アテネ, ギリシャ

アテネ国際空港

緯度: 37-56N, 経度: 023-56E, 海抜: 94m

現時点の気象観測

当レポートは15分前の04:50(UTC)に作成
西の風 2kt
気温 13°C
湿度 82%
気圧 1018 hPa
視程: 8000m
高度3000ftの雲はほとんどない

METAR: LGAV 210450Z 26002KT 8000 FEW030 13/10 Q1018 NOSIG

時間: 08:05 (05:05 UTC)

予報

当レポートは6時間5分前の23:00(UTC)に作成
予報は21日の 00時(UTC)から 21日の 24時(UTC)まで有効
変向風 5kt
視程10km以上
高度2500ftの雲はほとんどない
21日の 06時(UTC)から 21日の 08時(UTC)まで徐々に
東/北東の風 10kt
21日の 14時(UTC)から 21日の 16時(UTC)まで徐々に
変向風 5kt

TAF: LGAV 202300Z 2100/2124 VRB05KT 9999 FEW025 BECMG 2106/2108 07010KT BECMG 2114/2116 VRB05KT

4,000以上の空港の気象観測と天気予報(METAR報とTAF報)

利用可能な観測所は地図上に黄色い丸と赤い丸で示す。

丸の上にカーソルを重ねると観測所名を参照できる。

次にクリックすると気象観測と天気予報を参照できる。

マップの切り替え:黒色「×」印の緑ボタンをクリックして拡大、「-」印の緑ボタンをクリックして縮小、緑色の三角印をクリックして隣りの地図に切り替え


METAR-TAF: